Time;durP1;ratioP1;P1;durP2;ratioP2;P2;SDS_P1;SDS_P2;PMS_P1;PMS_P2;Temp;Humidity;BMP_temperature;BMP_pressure;BME280_temperature;BME280_humidity;BME280_pressure;Samples;Min_cycle;Max_cycle;Signal;HPM_P1;HPM_P2
2023/04/29 00:02:12;;;;;;;37.70;22.55;;;11.70;99.90;;;;;;5058816;28;20029;-71
2023/04/29 00:04:38;;;;;;;41.17;23.10;;;11.80;99.90;;;;;;5058026;28;20128;-70
2023/04/29 00:07:04;;;;;;;44.88;24.38;;;11.90;99.90;;;;;;5057963;28;20419;-73
2023/04/29 00:09:30;;;;;;;42.95;24.85;;;12.00;99.90;;;;;;5057880;28;20359;-72
2023/04/29 00:11:56;;;;;;;49.05;25.58;;;12.00;99.90;;;;;;5024907;28;20022;-70
2023/04/29 00:14:23;;;;;;;41.55;24.33;;;12.00;99.90;;;;;;5057906;28;20315;-71
2023/04/29 00:16:49;;;;;;;42.65;26.48;;;12.00;99.90;;;;;;5057252;28;20308;-69
2023/04/29 00:19:17;;;;;;;45.33;25.70;;;11.90;99.90;;;;;;5058173;28;20041;-69
2023/04/29 00:21:43;;;;;;;44.00;26.25;;;12.00;99.90;;;;;;5041354;28;20045;-69
2023/04/29 00:24:08;;;;;;;48.80;27.45;;;11.90;99.90;;;;;;5057624;28;20040;-70
2023/04/29 00:26:34;;;;;;;44.35;25.67;;;11.80;99.90;;;;;;5057629;28;20068;-72
2023/04/29 00:29:00;;;;;;;45.13;26.23;;;11.70;99.90;;;;;;5040998;28;20331;-72
2023/04/29 00:31:26;;;;;;;43.47;26.50;;;11.80;99.90;;;;;;5057568;28;20033;-69
2023/04/29 00:33:52;;;;;;;41.60;25.75;;;11.90;99.90;;;;;;5057548;28;20060;-71
2023/04/29 00:36:18;;;;;;;44.13;26.98;;;12.00;99.90;;;;;;5040778;28;20036;-71
2023/04/29 00:38:44;;;;;;;39.47;26.30;;;12.00;99.90;;;;;;5057238;28;20305;-71
2023/04/29 00:41:09;;;;;;;38.60;24.15;;;12.00;99.90;;;;;;5040855;28;20028;-71
2023/04/29 00:43:35;;;;;;;40.72;24.85;;;11.90;99.90;;;;;;5057230;28;20083;-70
2023/04/29 00:46:01;;;;;;;37.53;23.65;;;11.90;99.90;;;;;;5057295;28;20043;-71
2023/04/29 00:48:27;;;;;;;35.15;23.38;;;11.90;99.90;;;;;;5056979;28;20389;-70
2023/04/29 00:50:53;;;;;;;36.65;23.88;;;12.00;99.90;;;;;;5058001;28;20036;-67
2023/04/29 00:53:20;;;;;;;36.88;23.25;;;11.80;99.90;;;;;;5040489;28;20041;-70
2023/04/29 00:55:47;;;;;;;38.83;24.23;;;11.80;99.90;;;;;;5057162;28;20052;-68
2023/04/29 00:58:13;;;;;;;36.95;23.98;;;11.70;99.90;;;;;;5057085;28;20427;-71
2023/04/29 01:00:40;;;;;;;34.33;24.15;;;11.70;99.90;;;;;;5040392;28;20070;-69
2023/04/29 01:03:08;;;;;;;36.92;21.42;;;11.60;99.90;;;;;;5040223;28;20132;-68
2023/04/29 01:05:34;;;;;;;32.65;21.90;;;11.60;99.90;;;;;;5057563;28;20363;-68
2023/04/29 01:08:17;;;;;;;29.90;20.55;;;11.70;99.90;;;;;;5056618;28;20098;-73
2023/04/29 01:10:47;;;;;;;28.17;19.48;;;11.70;99.90;;;;;;5040225;28;20029;-72
2023/04/29 01:13:21;;;;;;;26.52;18.85;;;11.70;99.90;;;;;;5040095;28;20025;-72
2023/04/29 01:16:02;;;;;;;27.45;19.48;;;11.70;99.90;;;;;;5056654;28;20032;-70
2023/04/29 01:18:48;;;;;;;25.77;19.13;;;11.60;99.90;;;;;;5056491;28;20052;-69
2023/04/29 01:21:17;;;;;;;23.95;17.67;;;11.60;99.90;;;;;;5056446;28;20036;-70
2023/04/29 01:23:44;;;;;;;21.58;16.63;;;11.60;99.90;;;;;;5057333;28;20391;-67
2023/04/29 01:26:11;;;;;;;21.25;16.08;;;11.60;99.90;;;;;;5056786;28;20094;-70
2023/04/29 01:28:53;;;;;;;24.08;16.75;;;11.60;99.90;;;;;;5056226;28;20053;-69
2023/04/29 01:31:37;;;;;;;28.60;18.52;;;11.60;99.90;;;;;;5056639;28;20350;-67
2023/04/29 01:34:29;;;;;;;26.88;17.60;;;11.70;99.90;;;;;;5056437;28;20025;-67
2023/04/29 01:37:09;;;;;;;25.52;18.75;;;11.70;99.90;;;;;;5056270;28;20063;-68
2023/04/29 01:39:59;;;;;;;23.77;16.48;;;11.60;99.90;;;;;;5056512;28;20029;-68
2023/04/29 01:42:43;;;;;;;20.85;16.00;;;11.50;99.90;;;;;;5040043;28;20029;-69
2023/04/29 01:45:20;;;;;;;18.92;14.48;;;11.50;99.90;;;;;;5040030;28;20308;-68
2023/04/29 01:47:47;;;;;;;19.30;13.93;;;11.60;99.90;;;;;;5056139;28;20033;-69
2023/04/29 01:50:14;;;;;;;18.27;13.73;;;11.60;99.90;;;;;;5056082;28;20025;-69
2023/04/29 01:52:40;;;;;;;30.67;16.30;;;11.60;99.90;;;;;;5039590;28;20031;-69
2023/04/29 01:55:06;;;;;;;19.58;15.48;;;11.70;99.70;;;;;;5023178;28;20029;-68
2023/04/29 01:57:49;;;;;;;23.70;16.77;;;11.60;99.40;;;;;;5041916;28;20040;-69
2023/04/29 02:00:35;;;;;;;25.35;16.83;;;11.60;99.90;;;;;;5056059;28;20040;-71
2023/04/29 02:03:01;;;;;;;24.40;17.45;;;11.60;99.90;;;;;;5055876;28;20120;-70
2023/04/29 02:05:36;;;;;;;21.10;16.58;;;11.70;99.80;;;;;;5057222;28;20055;-68
2023/04/29 02:08:02;;;;;;;21.35;15.65;;;11.60;99.90;;;;;;5055842;28;20045;-69
2023/04/29 02:10:30;;;;;;;21.30;15.60;;;11.60;99.90;;;;;;5056180;28;20025;-69
2023/04/29 02:13:22;;;;;;;21.77;15.85;;;11.60;99.90;;;;;;5041101;28;20045;-68
2023/04/29 02:15:48;;;;;;;23.73;16.35;;;11.70;99.90;;;;;;5055820;28;20039;-69
2023/04/29 02:18:15;;;;;;;21.58;15.60;;;11.70;99.00;;;;;;5055803;28;20029;-69
2023/04/29 02:20:41;;;;;;;23.35;15.35;;;11.70;99.30;;;;;;5056598;28;20033;-70
2023/04/29 02:23:07;;;;;;;23.80;16.38;;;11.70;99.10;;;;;;5039134;28;20029;-69
2023/04/29 02:25:35;;;;;;;24.50;17.33;;;11.70;99.80;;;;;;5072087;28;20047;-69
2023/04/29 02:28:01;;;;;;;29.80;18.92;;;11.60;99.90;;;;;;5055526;28;20043;-70
2023/04/29 02:30:26;;;;;;;30.40;18.88;;;11.60;99.90;;;;;;5022834;28;20045;-71
2023/04/29 02:32:53;;;;;;;35.22;21.83;;;11.60;99.90;;;;;;5055761;28;20036;-69
2023/04/29 02:35:19;;;;;;;38.38;25.15;;;11.70;99.90;;;;;;5055881;28;20300;-69
2023/04/29 02:37:44;;;;;;;37.40;25.15;;;11.70;99.70;;;;;;5022644;28;20079;-68
2023/04/29 02:40:11;;;;;;;41.65;25.65;;;11.60;99.90;;;;;;5055609;28;20467;-69
2023/04/29 02:42:37;;;;;;;42.30;26.42;;;11.50;99.90;;;;;;5059421;28;20029;-68
2023/04/29 02:45:03;;;;;;;41.78;27.27;;;11.50;99.90;;;;;;5060255;28;20277;-71
2023/04/29 02:47:29;;;;;;;41.08;26.20;;;11.50;99.90;;;;;;5060474;28;20040;-69
2023/04/29 02:49:55;;;;;;;45.50;27.50;;;11.50;99.90;;;;;;5059369;28;20400;-71
2023/04/29 02:52:20;;;;;;;41.17;27.10;;;11.50;99.90;;;;;;5060409;28;20021;-71
2023/04/29 02:54:47;;;;;;;43.80;28.50;;;11.50;99.90;;;;;;5042934;28;20025;-69
2023/04/29 02:57:13;;;;;;;48.63;27.67;;;11.50;99.90;;;;;;5059195;28;20029;-71
2023/04/29 02:59:39;;;;;;;43.95;27.08;;;11.50;99.90;;;;;;5059229;28;20150;-69
2023/04/29 03:02:04;;;;;;;45.90;27.67;;;11.40;99.90;;;;;;5026133;28;20037;-69
2023/04/29 03:04:30;;;;;;;47.60;28.42;;;11.50;99.90;;;;;;5042369;28;20091;-66
2023/04/29 03:06:56;;;;;;;39.83;27.45;;;11.40;99.90;;;;;;5042569;28;20040;-67
2023/04/29 03:09:25;;;;;;;42.80;27.10;;;11.40;99.90;;;;;;5058973;28;20063;-67
2023/04/29 03:11:51;;;;;;;49.08;28.65;;;11.40;99.90;;;;;;5059119;28;20404;-68
2023/04/29 03:14:18;;;;;;;43.00;26.45;;;11.50;99.90;;;;;;5042489;28;20170;-68
2023/04/29 03:16:47;;;;;;;40.53;27.05;;;11.50;99.90;;;;;;5042296;28;20128;-70
2023/04/29 03:19:12;;;;;;;44.28;26.73;;;11.60;99.90;;;;;;5058871;28;20037;-69
2023/04/29 03:21:38;;;;;;;43.08;26.20;;;11.60;99.90;;;;;;5025812;28;20044;-68
2023/04/29 03:24:05;;;;;;;48.42;26.60;;;11.60;99.90;;;;;;5058737;28;20047;-69
2023/04/29 03:26:33;;;;;;;42.83;26.25;;;11.50;99.90;;;;;;5042303;28;20041;-68
2023/04/29 03:28:59;;;;;;;41.55;26.58;;;11.50;99.90;;;;;;5058492;28;20303;-66
2023/04/29 03:31:26;;;;;;;46.63;27.02;;;11.50;99.90;;;;;;5058831;28;20039;-69
2023/04/29 03:33:52;;;;;;;46.22;26.73;;;11.50;99.90;;;;;;5058524;28;20114;-66
2023/04/29 03:36:19;;;;;;;42.25;25.80;;;11.50;99.90;;;;;;5058613;28;20029;-69
2023/04/29 03:38:58;;;;;;;43.13;27.30;;;11.60;99.90;;;;;;5043570;28;20033;-69
2023/04/29 03:41:25;;;;;;;46.92;26.65;;;11.50;99.90;;;;;;5058541;28;20043;-67
2023/04/29 03:43:53;;;;;;;38.90;25.95;;;11.50;99.90;;;;;;5058368;28;20106;-67
2023/04/29 03:46:19;;;;;;;41.65;25.73;;;11.50;99.90;;;;;;5058661;28;20032;-68
2023/04/29 03:48:45;;;;;;;42.40;26.40;;;11.40;99.90;;;;;;5058396;28;20372;-68
2023/04/29 03:51:12;;;;;;;42.03;26.38;;;11.40;99.90;;;;;;5025105;28;20400;-67
2023/04/29 03:53:38;;;;;;;38.95;24.95;;;11.40;99.90;;;;;;5058124;28;20029;-67
2023/04/29 03:56:05;;;;;;;40.47;25.55;;;11.30;99.90;;;;;;5041701;28;20400;-69
2023/04/29 03:58:31;;;;;;;38.75;25.20;;;11.40;99.90;;;;;;5058119;28;20308;-68
2023/04/29 04:00:57;;;;;;;41.65;24.25;;;11.30;99.90;;;;;;5074737;28;20033;-69
2023/04/29 04:03:31;;;;;;;41.17;23.90;;;11.20;99.90;;;;;;5042345;28;20063;-67
2023/04/29 04:05:57;;;;;;;40.97;25.83;;;11.20;99.90;;;;;;5025000;28;20045;-69
2023/04/29 04:08:23;;;;;;;39.60;25.15;;;11.20;99.90;;;;;;5041165;28;20041;-68
2023/04/29 04:11:09;;;;;;;42.60;24.48;;;11.20;99.90;;;;;;5057640;28;20387;-68
2023/04/29 04:13:43;;;;;;;34.20;22.90;;;11.20;99.90;;;;;;5042464;28;20035;-69
2023/04/29 04:16:10;;;;;;;36.53;23.33;;;11.20;99.90;;;;;;5041143;28;20039;-71
2023/04/29 04:18:37;;;;;;;37.38;24.27;;;11.10;99.90;;;;;;5057912;28;20037;-68
2023/04/29 04:21:10;;;;;;;35.08;24.00;;;11.20;99.90;;;;;;5041169;28;20123;-68
2023/04/29 04:23:42;;;;;;;36.13;22.55;;;11.10;99.90;;;;;;5057679;28;20154;-70
2023/04/29 04:26:11;;;;;;;31.75;23.10;;;11.20;99.90;;;;;;5057683;28;20033;-68
2023/04/29 04:28:58;;;;;;;35.95;22.65;;;11.20;99.90;;;;;;5057449;28;20059;-68
2023/04/29 04:31:33;;;;;;;33.70;22.23;;;11.30;99.90;;;;;;5042043;28;20043;-67
2023/04/29 04:33:59;;;;;;;40.28;23.38;;;11.20;99.90;;;;;;5057944;28;20337;-68
2023/04/29 04:36:27;;;;;;;40.33;22.02;;;11.20;99.90;;;;;;5057100;28;20057;-68
2023/04/29 04:38:54;;;;;;;36.25;22.63;;;11.30;99.90;;;;;;5024116;28;20052;-67
2023/04/29 04:41:20;;;;;;;32.35;21.88;;;11.30;99.90;;;;;;5040498;28;20037;-69
2023/04/29 04:43:47;;;;;;;34.83;21.92;;;11.30;99.90;;;;;;5056994;28;20120;-67
2023/04/29 04:46:32;;;;;;;30.73;21.13;;;11.20;99.90;;;;;;5043102;28;20456;-68
2023/04/29 04:49:18;;;;;;;26.83;19.67;;;11.20;99.90;;;;;;5049603;28;20041;-68
2023/04/29 04:51:52;;;;;;;28.52;19.02;;;11.10;99.90;;;;;;5056789;28;20033;-68
2023/04/29 04:54:18;;;;;;;26.05;17.63;;;11.10;99.90;;;;;;5056674;28;20059;-69
2023/04/29 04:56:44;;;;;;;23.98;17.55;;;11.20;99.50;;;;;;5057002;28;20025;-68
2023/04/29 04:59:10;;;;;;;22.90;16.13;;;11.20;98.70;;;;;;5057413;28;20112;-68
2023/04/29 05:01:37;;;;;;;22.58;16.42;;;11.20;97.80;;;;;;5056838;28;20037;-68
2023/04/29 05:04:03;;;;;;;23.95;17.08;;;11.20;97.00;;;;;;5039401;28;20170;-67
2023/04/29 05:06:30;;;;;;;25.27;18.13;;;11.20;98.10;;;;;;5040111;28;20120;-68
2023/04/29 05:08:56;;;;;;;27.00;18.95;;;11.10;98.80;;;;;;5056347;28;20144;-69
2023/04/29 05:11:23;;;;;;;27.08;19.67;;;11.20;98.90;;;;;;5056642;28;20052;-71
2023/04/29 05:14:04;;;;;;;30.35;20.60;;;11.30;98.10;;;;;;5056489;28;20029;-68
2023/04/29 05:16:30;;;;;;;29.40;21.55;;;11.30;97.00;;;;;;5023550;28;20407;-68
2023/04/29 05:18:56;;;;;;;27.42;21.38;;;11.40;96.90;;;;;;5039911;28;20147;-68
2023/04/29 05:21:25;;;;;;;34.63;22.20;;;11.30;97.30;;;;;;5057028;28;20055;-69
2023/04/29 05:23:56;;;;;;;27.10;20.52;;;11.20;98.10;;;;;;5056539;28;20036;-69
2023/04/29 05:26:22;;;;;;;28.13;20.92;;;11.20;98.40;;;;;;5007185;28;20045;-68
2023/04/29 05:28:49;;;;;;;32.22;22.08;;;11.20;98.90;;;;;;5056393;28;20400;-68
2023/04/29 05:31:17;;;;;;;30.23;22.30;;;11.20;99.30;;;;;;5040804;28;20033;-68
2023/04/29 05:33:43;;;;;;;27.00;21.27;;;11.30;99.10;;;;;;5039876;28;20029;-69
2023/04/29 05:36:09;;;;;;;30.63;22.95;;;11.30;99.20;;;;;;5056245;28;20124;-68
2023/04/29 05:38:35;;;;;;;32.28;23.27;;;11.30;98.50;;;;;;5039875;28;20028;-68
2023/04/29 05:41:05;;;;;;;28.50;23.08;;;11.30;98.80;;;;;;5024499;28;20037;-70
2023/04/29 05:43:52;;;;;;;30.85;22.30;;;11.30;97.40;;;;;;5057399;28;20312;-69
2023/04/29 05:46:19;;;;;;;27.45;19.50;;;11.30;97.80;;;;;;5056610;28;20439;-68
2023/04/29 05:48:45;;;;;;;24.90;20.42;;;11.40;95.70;;;;;;5039538;28;20364;-68
2023/04/29 05:51:12;;;;;;;32.85;22.90;;;11.40;95.00;;;;;;5023228;28;20029;-69
2023/04/29 05:53:39;;;;;;;33.58;22.92;;;11.30;96.00;;;;;;5039465;28;20091;-68
2023/04/29 05:56:07;;;;;;;30.27;22.83;;;11.30;96.10;;;;;;5056270;28;20039;-68
2023/04/29 05:58:34;;;;;;;29.75;23.13;;;11.30;95.90;;;;;;5039354;28;20052;-68
2023/04/29 06:01:00;;;;;;;35.15;25.27;;;11.30;96.40;;;;;;5056022;28;20037;-68
2023/04/29 06:03:26;;;;;;;34.97;25.05;;;11.30;97.80;;;;;;5039623;28;20430;-68
2023/04/29 06:06:28;;;;;;;32.53;24.42;;;11.30;97.40;;;;;;5004223;28;20303;-68
2023/04/29 06:09:20;;;;;;;30.13;24.08;;;11.30;98.00;;;;;;5038069;28;20098;-68
2023/04/29 06:11:46;;;;;;;36.67;23.27;;;11.40;97.60;;;;;;5055913;28;20037;-69
2023/04/29 06:14:15;;;;;;;37.25;24.85;;;11.50;96.50;;;;;;5055848;28;20304;-69
2023/04/29 06:16:41;;;;;;;31.63;24.75;;;11.60;95.50;;;;;;5058372;28;20029;-68
2023/04/29 06:19:08;;;;;;;33.42;24.38;;;11.50;95.80;;;;;;5076598;28;20366;-70
2023/04/29 06:21:33;;;;;;;33.83;25.35;;;11.50;96.80;;;;;;5059958;28;20033;-67
2023/04/29 06:23:59;;;;;;;36.40;26.90;;;11.50;97.20;;;;;;5059798;28;20115;-67
2023/04/29 06:26:25;;;;;;;40.10;25.67;;;11.60;97.70;;;;;;5059915;28;20110;-67
2023/04/29 06:28:51;;;;;;;35.35;26.70;;;11.60;97.70;;;;;;5076449;28;20036;-68
2023/04/29 06:31:17;;;;;;;37.20;25.35;;;11.70;97.10;;;;;;5026923;28;20040;-66
2023/04/29 06:33:43;;;;;;;32.53;25.40;;;11.70;97.00;;;;;;5043006;28;20029;-68
2023/04/29 06:36:09;;;;;;;33.47;24.60;;;11.70;97.10;;;;;;5059776;28;20044;-68
2023/04/29 06:38:54;;;;;;;32.20;24.30;;;11.70;95.60;;;;;;5060295;28;20047;-67
2023/04/29 06:41:31;;;;;;;27.60;22.48;;;11.80;96.10;;;;;;5060011;28;20108;-67
2023/04/29 06:44:17;;;;;;;28.23;20.60;;;11.90;95.40;;;;;;5059765;28;20419;-68
2023/04/29 06:47:09;;;;;;;29.75;20.10;;;12.00;94.90;;;;;;5043998;28;20045;-70
2023/04/29 06:49:46;;;;;;;26.83;19.38;;;12.10;92.90;;;;;;5060876;28;20037;-69
2023/04/29 06:52:12;;;;;;;23.85;17.95;;;12.10;91.70;;;;;;5059421;28;20047;-67
2023/04/29 06:54:38;;;;;;;24.85;18.15;;;12.10;91.40;;;;;;5059341;28;20020;-68
2023/04/29 06:57:04;;;;;;;24.35;17.85;;;12.20;90.90;;;;;;5059991;28;20121;-67
2023/04/29 06:59:31;;;;;;;26.00;18.90;;;12.30;90.90;;;;;;5060117;28;20048;-68
2023/04/29 07:01:57;;;;;;;23.80;18.40;;;12.40;87.40;;;;;;5059133;28;20040;-67
2023/04/29 07:04:23;;;;;;;23.15;17.60;;;12.50;85.40;;;;;;5059554;28;20296;-67
2023/04/29 07:06:49;;;;;;;21.90;16.95;;;12.70;81.40;;;;;;5042500;28;20481;-68
2023/04/29 07:09:16;;;;;;;22.17;16.33;;;12.70;74.20;;;;;;5059778;28;20155;-68
2023/04/29 07:11:42;;;;;;;24.95;16.98;;;12.90;72.60;;;;;;5025940;28;20027;-69
2023/04/29 07:14:08;;;;;;;24.42;17.38;;;13.00;71.20;;;;;;5059729;28;20036;-68
2023/04/29 07:16:33;;;;;;;22.77;18.00;;;13.10;71.00;;;;;;5042336;28;20041;-68
2023/04/29 07:18:59;;;;;;;27.80;17.52;;;13.30;64.40;;;;;;5058891;28;20040;-69
2023/04/29 07:21:26;;;;;;;22.42;16.30;;;13.40;56.20;;;;;;5058855;28;20037;-67
2023/04/29 07:23:54;;;;;;;23.60;16.80;;;13.40;49.00;;;;;;5042064;28;20284;-69
2023/04/29 07:26:20;;;;;;;25.25;16.95;;;13.40;46.80;;;;;;5058206;28;20390;-68
2023/04/29 07:28:48;;;;;;;26.13;16.77;;;13.50;51.70;;;;;;5058595;28;20308;-68
2023/04/29 07:31:14;;;;;;;21.25;15.63;;;13.50;48.70;;;;;;5058476;28;20384;-69
2023/04/29 07:33:40;;;;;;;23.80;16.75;;;13.60;47.50;;;;;;5058506;28;20296;-67
2023/04/29 07:36:06;;;;;;;22.27;15.93;;;13.60;45.70;;;;;;5041915;28;20036;-70
2023/04/29 07:38:33;;;;;;;20.02;14.85;;;13.60;47.20;;;;;;5025429;28;20048;-67
2023/04/29 07:40:59;;;;;;;23.58;16.88;;;13.70;43.20;;;;;;5058410;28;20069;-70
2023/04/29 07:43:25;;;;;;;24.17;16.98;;;13.60;47.70;;;;;;5041878;28;20124;-71
2023/04/29 07:45:51;;;;;;;22.42;15.68;;;13.70;46.60;;;;;;5025367;28;20045;-69
2023/04/29 07:48:17;;;;;;;19.75;14.95;;;13.70;45.10;;;;;;5058142;28;20039;-68
2023/04/29 07:50:43;;;;;;;22.98;15.38;;;13.80;42.30;;;;;;5058197;28;20100;-69
2023/04/29 07:53:09;;;;;;;22.30;15.90;;;13.80;44.70;;;;;;5058279;28;20150;-71
2023/04/29 07:55:37;;;;;;;22.38;14.85;;;13.80;36.40;;;;;;5058374;28;20025;-69
2023/04/29 07:58:03;;;;;;;23.75;15.10;;;13.80;43.90;;;;;;5041514;28;20029;-68
2023/04/29 08:00:30;;;;;;;17.17;12.98;;;13.90;42.10;;;;;;5057927;28;20040;-69
2023/04/29 08:02:56;;;;;;;18.52;13.27;;;13.90;37.80;;;;;;5024753;28;20029;-69
2023/04/29 08:05:22;;;;;;;17.50;13.95;;;14.00;38.50;;;;;;5058530;28;20049;-70
2023/04/29 08:07:51;;;;;;;20.08;13.73;;;14.10;36.60;;;;;;5024852;28;20125;-69
2023/04/29 08:10:18;;;;;;;21.60;14.10;;;14.00;38.80;;;;;;5041289;28;20120;-70
2023/04/29 08:12:50;;;;;;;18.58;13.50;;;14.10;38.30;;;;;;5041225;28;20153;-69
2023/04/29 08:15:17;;;;;;;19.05;13.07;;;14.10;38.70;;;;;;5057838;28;20051;-69
2023/04/29 08:17:43;;;;;;;18.83;13.48;;;14.20;39.00;;;;;;5057912;28;20040;-69
2023/04/29 08:20:09;;;;;;;15.32;12.80;;;14.30;37.10;;;;;;5057693;28;20289;-69
2023/04/29 08:22:35;;;;;;;17.13;13.05;;;14.40;37.70;;;;;;5057670;28;20423;-69
2023/04/29 08:25:03;;;;;;;22.25;13.88;;;14.60;36.40;;;;;;5057595;28;20021;-69
2023/04/29 08:27:30;;;;;;;15.25;12.93;;;14.70;30.00;;;;;;5024459;28;20304;-67
2023/04/29 08:29:56;;;;;;;20.67;13.70;;;15.00;24.50;;;;;;5057298;28;20110;-69
2023/04/29 08:32:21;;;;;;;19.38;13.20;;;15.10;16.90;;;;;;5040760;28;20104;-68
2023/04/29 08:34:47;;;;;;;18.05;13.32;;;15.20;20.90;;;;;;5057406;28;20040;-68
2023/04/29 08:37:14;;;;;;;19.35;12.38;;;15.30;14.20;;;;;;5040779;28;20035;-70
2023/04/29 08:39:42;;;;;;;16.58;12.57;;;15.40;13.30;;;;;;5056568;28;20052;-69
2023/04/29 08:42:11;;;;;;;12.98;10.10;;;15.50;11.50;;;;;;5057324;28;20319;-64
2023/04/29 08:44:39;;;;;;;16.73;12.75;;;15.70;22.90;;;;;;5057283;28;20108;-70
2023/04/29 08:47:06;;;;;;;16.63;12.13;;;15.90;1.00;;;;;;5057894;28;20039;-69
2023/04/29 08:49:32;;;;;;;17.52;11.88;;;16.20;1.00;;;;;;5040626;28;20364;-69
2023/04/29 08:51:59;;;;;;;17.83;12.23;;;16.30;1.00;;;;;;5057030;28;20029;-69
2023/04/29 08:54:27;;;;;;;19.52;12.55;;;16.20;1.00;;;;;;5040640;28;20136;-69
2023/04/29 08:56:56;;;;;;;16.63;11.85;;;16.40;1.00;;;;;;5040115;28;20028;-69
2023/04/29 08:59:24;;;;;;;16.83;11.77;;;16.70;1.00;;;;;;5058003;28;20060;-68
2023/04/29 09:01:52;;;;;;;15.57;11.00;;;16.80;1.00;;;;;;5057572;28;20036;-68
2023/04/29 09:04:50;;;;;;;13.73;10.00;;;17.00;1.00;;;;;;5056814;28;20174;-70
2023/04/29 09:07:16;;;;;;;14.85;10.10;;;17.40;1.00;;;;;;5057657;28;20331;-67
2023/04/29 09:09:42;;;;;;;14.90;10.18;;;17.30;1.00;;;;;;5057445;28;20033;-68
2023/04/29 09:12:08;;;;;;;15.85;10.55;;;17.10;1.00;;;;;;5056697;28;20412;-68
2023/04/29 09:14:35;;;;;;;13.45;10.73;;;16.90;1.00;;;;;;5056811;28;20068;-68
2023/04/29 09:17:01;;;;;;;13.35;10.98;;;16.80;1.00;;;;;;5056630;28;20037;-67
2023/04/29 09:19:35;;;;;;;13.63;10.30;;;16.90;1.00;;;;;;5056632;28;20124;-70
2023/04/29 09:22:03;;;;;;;13.77;10.55;;;17.20;1.00;;;;;;5040616;28;20044;-69
2023/04/29 09:24:30;;;;;;;13.95;10.30;;;17.70;1.00;;;;;;5057174;28;20032;-73
2023/04/29 09:27:00;;;;;;;13.32;9.48;;;17.80;1.00;;;;;;5040903;28;20423;-68
2023/04/29 09:29:26;;;;;;;12.77;10.60;;;17.90;1.00;;;;;;5039666;28;20076;-69
2023/04/29 09:31:57;;;;;;;15.20;11.27;;;17.80;1.00;;;;;;5056476;28;20106;-69
2023/04/29 09:34:34;;;;;;;12.10;9.45;;;18.00;1.00;;;;;;5056412;28;20369;-68
2023/04/29 09:37:00;;;;;;;13.40;9.77;;;17.90;1.00;;;;;;5056844;28;20033;-70
2023/04/29 09:39:26;;;;;;;12.00;9.48;;;17.90;1.00;;;;;;5056457;28;20120;-69
2023/04/29 09:41:52;;;;;;;13.02;9.30;;;17.90;1.00;;;;;;5039517;28;20048;-68
2023/04/29 09:44:19;;;;;;;11.82;9.25;;;17.40;1.00;;;;;;5056803;28;20193;-67
2023/04/29 09:46:58;;;;;;;11.95;9.25;;;17.40;1.00;;;;;;5056178;28;20074;-69
2023/04/29 09:49:26;;;;;;;14.63;9.75;;;17.50;1.00;;;;;;5039113;28;20025;-69
2023/04/29 09:52:00;;;;;;;13.52;10.10;;;17.40;1.00;;;;;;5039738;28;20336;-68
2023/04/29 09:54:28;;;;;;;15.63;10.18;;;17.30;1.00;;;;;;5056251;28;20064;-69
2023/04/29 09:56:54;;;;;;;11.82;9.15;;;17.60;1.00;;;;;;5055792;28;20033;-69
2023/04/29 09:59:21;;;;;;;11.98;8.43;;;17.90;1.00;;;;;;5055977;28;20037;-69
2023/04/29 10:01:49;;;;;;;10.10;8.40;;;17.80;1.00;;;;;;5056607;28;20100;-69
2023/04/29 10:04:17;;;;;;;14.13;9.27;;;18.10;1.00;;;;;;5055933;28;20446;-68
2023/04/29 10:06:45;;;;;;;17.75;9.52;;;18.50;1.00;;;;;;5039366;28;20392;-72
2023/04/29 10:09:15;;;;;;;10.93;8.15;;;18.50;1.00;;;;;;5056605;28;20306;-70
2023/04/29 10:11:45;;;;;;;9.05;7.38;;;18.40;1.00;;;;;;5057129;28;20373;-70
2023/04/29 10:14:13;;;;;;;9.38;7.65;;;18.40;1.00;;;;;;5039209;28;20408;-69
2023/04/29 10:17:02;;;;;;;11.30;7.90;;;18.40;1.00;;;;;;5055797;28;20031;-69
2023/04/29 10:19:47;;;;;;;10.05;8.05;;;18.20;1.00;;;;;;5056034;28;20098;-71
2023/04/29 10:22:26;;;;;;;10.15;7.53;;;18.00;1.00;;;;;;5055715;28;20037;-68
2023/04/29 10:24:54;;;;;;;9.73;7.60;;;17.40;1.00;;;;;;5039349;28;20029;-68
2023/04/29 10:27:21;;;;;;;10.90;7.95;;;17.20;1.00;;;;;;5056520;28;20039;-69
2023/04/29 10:29:49;;;;;;;9.25;7.18;;;17.50;1.00;;;;;;5055369;28;20043;-68
2023/04/29 10:32:16;;;;;;;8.55;6.97;;;17.70;1.00;;;;;;5023115;28;20025;-69
2023/04/29 10:34:42;;;;;;;11.43;7.57;;;18.00;1.00;;;;;;5056559;28;20053;-68
2023/04/29 10:37:12;;;;;;;8.70;7.18;;;18.00;1.00;;;;;;5055865;28;20032;-70
2023/04/29 10:39:43;;;;;;;7.35;5.75;;;18.10;1.00;;;;;;5039251;28;20045;-65
2023/04/29 10:42:41;;;;;;;7.63;6.57;;;17.80;1.00;;;;;;5056377;28;20297;-67
2023/04/29 10:45:31;;;;;;;9.60;7.28;;;17.70;1.00;;;;;;5038346;28;20315;-67
2023/04/29 10:48:09;;;;;;;12.32;8.48;;;17.70;1.00;;;;;;5038879;28;20024;-66
2023/04/29 10:50:44;;;;;;;9.75;7.50;;;17.50;1.00;;;;;;5038919;28;20025;-67
2023/04/29 10:53:10;;;;;;;10.63;7.93;;;17.30;1.00;;;;;;5055769;28;20297;-66
2023/04/29 10:55:37;;;;;;;9.93;7.72;;;17.10;1.00;;;;;;5038930;28;20029;-67
2023/04/29 10:58:04;;;;;;;8.93;6.82;;;16.60;1.00;;;;;;5055478;28;20356;-68
2023/04/29 11:00:32;;;;;;;9.77;8.05;;;16.60;1.00;;;;;;5055540;28;20072;-66
2023/04/29 11:02:59;;;;;;;9.65;7.35;;;17.00;1.00;;;;;;5041405;28;20040;-66
2023/04/29 11:05:33;;;;;;;10.35;8.10;;;17.40;1.00;;;;;;5059886;28;20308;-66
2023/04/29 11:08:22;;;;;;;10.18;7.47;;;17.20;1.00;;;;;;5042434;28;20094;-66
2023/04/29 11:10:53;;;;;;;9.15;7.13;;;17.80;1.00;;;;;;5060446;28;20032;-67
2023/04/29 11:13:30;;;;;;;8.25;7.20;;;18.50;1.00;;;;;;5059245;28;20041;-69
2023/04/29 11:16:07;;;;;;;9.82;7.57;;;18.90;1.00;;;;;;5060387;28;20337;-67
2023/04/29 11:18:34;;;;;;;9.77;7.32;;;19.10;1.00;;;;;;5058956;28;20056;-67
2023/04/29 11:21:06;;;;;;;9.57;7.30;;;19.20;1.00;;;;;;5059596;28;20041;-67
2023/04/29 11:23:51;;;;;;;9.13;6.75;;;19.20;1.00;;;;;;5059585;28;20355;-68
2023/04/29 11:26:20;;;;;;;9.52;7.35;;;19.20;1.00;;;;;;5060166;28;20036;-67
2023/04/29 11:28:47;;;;;;;8.35;7.10;;;19.20;99.90;;;;;;5058611;28;20047;-66
2023/04/29 11:31:13;;;;;;;6.28;5.60;;;19.30;99.90;;;;;;5042066;28;20415;-66
2023/04/29 11:33:38;;;;;;;8.25;7.03;;;19.60;99.90;;;;;;5058505;28;20025;-67
2023/04/29 11:36:05;;;;;;;10.63;7.35;;;19.80;81.10;;;;;;5059135;28;20040;-67
2023/04/29 11:38:30;;;;;;;12.18;7.43;;;19.80;1.00;;;;;;5059247;28;20080;-67
2023/04/29 11:40:58;;;;;;;7.72;6.35;;;19.70;1.00;;;;;;5042155;28;20053;-68
2023/04/29 11:43:25;;;;;;;9.55;7.03;;;19.70;1.00;;;;;;5058743;28;20032;-67
2023/04/29 11:45:51;;;;;;;8.98;7.22;;;19.90;1.00;;;;;;5058338;28;20041;-67
2023/04/29 11:48:25;;;;;;;10.43;6.70;;;19.80;1.00;;;;;;5058331;28;20098;-67
2023/04/29 11:50:58;;;;;;;10.55;6.88;;;19.50;1.00;;;;;;5059096;28;20359;-67
2023/04/29 11:53:26;;;;;;;9.77;7.00;;;19.20;1.00;;;;;;5058328;28;20293;-68
2023/04/29 11:55:55;;;;;;;7.40;6.25;;;18.70;99.90;;;;;;5058529;28;20465;-67
2023/04/29 11:58:22;;;;;;;9.57;6.35;;;18.80;1.00;;;;;;5058837;28;20086;-67
2023/04/29 12:00:49;;;;;;;10.10;7.28;;;19.30;99.90;;;;;;5058041;28;20044;-67
2023/04/29 12:03:16;;;;;;;9.32;7.07;;;19.50;1.00;;;;;;5058574;28;20179;-66
2023/04/29 12:05:54;;;;;;;8.20;6.05;;;20.00;1.00;;;;;;5058103;28;20068;-67
2023/04/29 12:08:25;;;;;;;6.97;5.93;;;20.60;1.00;;;;;;5057856;28;20414;-67
2023/04/29 12:10:53;;;;;;;8.00;6.78;;;21.10;99.90;;;;;;5057779;28;20025;-67
2023/04/29 12:13:19;;;;;;;7.78;6.43;;;21.60;99.90;;;;;;5057738;28;20025;-66
2023/04/29 12:15:47;;;;;;;8.60;7.20;;;20.70;1.00;;;;;;5041284;28;20025;-66
2023/04/29 12:18:15;;;;;;;8.07;6.13;;;21.00;1.00;;;;;;5057826;28;20032;-67
2023/04/29 12:20:41;;;;;;;9.77;7.00;;;20.80;1.00;;;;;;5057839;28;20029;-66
2023/04/29 12:23:25;;;;;;;7.70;6.18;;;20.00;56.80;;;;;;5041236;28;20036;-66
2023/04/29 12:25:56;;;;;;;9.25;5.97;;;20.30;99.90;;;;;;5057633;28;20033;-65
2023/04/29 12:28:22;;;;;;;7.50;4.93;;;20.60;99.90;;;;;;5058221;28;20043;-66
2023/04/29 12:30:50;;;;;;;6.90;6.15;;;21.00;99.90;;;;;;5057546;28;20064;-66
2023/04/29 12:33:24;;;;;;;7.10;5.63;;;21.40;1.00;;;;;;5058207;28;20025;-66
2023/04/29 12:35:51;;;;;;;8.25;5.97;;;21.70;99.90;;;;;;5057377;28;20040;-66
2023/04/29 12:38:27;;;;;;;7.00;6.30;;;22.20;1.00;;;;;;5057288;28;20028;-64
2023/04/29 12:40:55;;;;;;;7.97;6.53;;;22.80;99.90;;;;;;5057992;28;20082;-66
2023/04/29 12:43:28;;;;;;;7.80;6.00;;;22.60;1.00;;;;;;5058064;28;20094;-66
2023/04/29 12:46:07;;;;;;;6.85;6.15;;;22.30;1.00;;;;;;5024185;28;20044;-66